createdAt,value
2018-01-26T00:02:12.652Z,41.77
2018-01-26T00:04:43.189Z,49.50
2018-01-26T00:07:14.738Z,48.20
2018-01-26T00:09:45.263Z,48.50
2018-01-26T00:12:15.610Z,44.83
2018-01-26T00:14:45.910Z,51.30
2018-01-26T00:17:17.125Z,48.00
2018-01-26T00:19:48.125Z,51.63
2018-01-26T00:22:18.453Z,46.87
2018-01-26T00:24:48.995Z,48.20
2018-01-26T00:27:20.108Z,54.63
2018-01-26T00:29:50.340Z,51.00
2018-01-26T00:32:20.560Z,51.97
2018-01-26T00:34:51.361Z,49.40
2018-01-26T00:37:21.606Z,49.33
2018-01-26T00:39:51.829Z,59.40
2018-01-26T00:42:22.232Z,58.33
2018-01-26T00:44:52.844Z,53.60
2018-01-26T00:47:23.141Z,54.50
2018-01-26T00:49:54.322Z,59.70
2018-01-26T00:52:24.641Z,51.73
2018-01-26T00:54:55.080Z,56.50
2018-01-26T00:57:26.151Z,61.63
2018-01-26T00:59:56.329Z,54.60
2018-01-26T01:02:26.508Z,55.87
2018-01-26T01:04:57.226Z,51.97
2018-01-26T01:07:27.508Z,54.90
2018-01-26T01:09:57.990Z,60.40
2018-01-26T01:12:29.648Z,58.97
2018-01-26T01:15:00.328Z,56.07
2018-01-26T01:17:30.565Z,70.63
2018-01-26T01:20:00.742Z,60.40
2018-01-26T01:22:31.191Z,61.57
2018-01-26T01:25:01.765Z,56.63
2018-01-26T01:27:32.040Z,62.13
2018-01-26T01:30:02.577Z,65.77
2018-01-26T01:32:32.825Z,59.50
2018-01-26T01:35:03.330Z,59.73
2018-01-26T01:37:33.801Z,52.90
2018-01-26T01:40:05.456Z,55.63
2018-01-26T01:42:36.526Z,43.23
2018-01-26T01:45:07.030Z,45.03
2018-01-26T01:47:38.087Z,36.83
2018-01-26T01:50:08.350Z,39.67
2018-01-26T01:52:38.616Z,36.87
2018-01-26T01:55:09.288Z,32.00
2018-01-26T01:57:39.713Z,43.13
2018-01-26T02:00:09.953Z,34.00
2018-01-26T02:02:41.003Z,35.70
2018-01-26T02:05:11.621Z,36.17
2018-01-26T02:07:43.542Z,29.33
2018-01-26T02:10:13.820Z,34.13
2018-01-26T02:12:44.330Z,37.63
2018-01-26T02:15:14.808Z,33.23
2018-01-26T02:17:45.945Z,31.37
2018-01-26T02:20:17.297Z,27.53
2018-01-26T02:22:47.561Z,33.03
2018-01-26T02:25:18.010Z,28.23
2018-01-26T02:27:48.599Z,26.37
2018-01-26T02:30:18.940Z,32.53
2018-01-26T02:32:49.379Z,28.80
2018-01-26T02:35:20.256Z,31.60
2018-01-26T02:37:50.917Z,27.37
2018-01-26T02:40:21.289Z,33.87
2018-01-26T02:42:52.403Z,27.30
2018-01-26T02:45:22.991Z,29.93
2018-01-26T02:47:53.855Z,27.00
2018-01-26T02:50:24.139Z,27.47
2018-01-26T02:52:55.185Z,34.90
2018-01-26T02:55:26.983Z,33.03
2018-01-26T02:57:59.459Z,36.43
2018-01-26T03:00:29.664Z,33.93
2018-01-26T03:03:00.191Z,33.50
2018-01-26T03:05:30.509Z,40.20
2018-01-26T03:08:01.180Z,32.47
2018-01-26T03:10:31.854Z,34.20
2018-01-26T03:13:02.057Z,40.73
2018-01-26T03:15:32.357Z,36.67
2018-01-26T03:18:02.905Z,31.83
2018-01-26T03:20:33.242Z,38.50
2018-01-26T03:23:03.520Z,40.33
2018-01-26T03:25:34.210Z,39.00
2018-01-26T03:28:04.572Z,39.77
2018-01-26T03:30:34.957Z,35.03
2018-01-26T03:33:06.398Z,42.37
2018-01-26T03:35:36.624Z,43.00
2018-01-26T03:38:07.068Z,43.27
2018-01-26T03:40:37.557Z,48.07
2018-01-26T03:43:08.952Z,41.33
2018-01-26T03:45:39.599Z,44.57
2018-01-26T03:48:09.814Z,41.27
2018-01-26T03:50:40.118Z,41.80
2018-01-26T03:53:13.938Z,47.90
2018-01-26T03:55:44.160Z,45.20
2018-01-26T03:58:14.620Z,45.63
2018-01-26T04:00:45.028Z,43.67
2018-01-26T04:03:16.281Z,40.37
2018-01-26T04:05:46.745Z,41.53
2018-01-26T04:08:18.250Z,40.47
2018-01-26T04:10:48.472Z,44.23
2018-01-26T04:13:18.788Z,37.83
2018-01-26T04:15:49.632Z,46.33
2018-01-26T04:18:19.892Z,43.87
2018-01-26T04:20:50.249Z,41.90
2018-01-26T04:23:20.792Z,50.10
2018-01-26T04:25:51.180Z,45.73
2018-01-26T04:28:21.525Z,42.57
2018-01-26T04:30:51.896Z,51.13
2018-01-26T04:33:22.471Z,56.43
2018-01-26T04:35:52.953Z,59.17
2018-01-26T04:38:24.433Z,55.57
2018-01-26T04:40:54.636Z,54.03
2018-01-26T04:43:26.081Z,55.73
2018-01-26T04:45:57.259Z,54.93
2018-01-26T04:48:27.496Z,50.97
2018-01-26T04:50:58.246Z,59.87
2018-01-26T04:53:28.596Z,53.77
2018-01-26T04:55:59.139Z,66.23
2018-01-26T04:58:30.709Z,54.90
2018-01-26T05:01:00.916Z,61.70
2018-01-26T05:03:31.988Z,57.50
2018-01-26T05:06:02.561Z,60.80
2018-01-26T05:08:33.088Z,61.07
2018-01-26T05:11:03.510Z,60.27
2018-01-26T05:13:34.051Z,57.03
2018-01-26T05:16:04.276Z,58.23
2018-01-26T05:18:35.263Z,52.67
2018-01-26T05:21:06.515Z,57.73
2018-01-26T05:23:36.773Z,64.97
2018-01-26T05:26:08.028Z,55.40
2018-01-26T05:28:39.327Z,62.67
2018-01-26T05:31:09.842Z,63.80
2018-01-26T05:33:40.316Z,65.07
2018-01-26T05:36:10.635Z,74.60
2018-01-26T05:38:41.547Z,85.47
2018-01-26T05:41:11.914Z,75.03
2018-01-26T05:43:42.609Z,86.93
2018-01-26T05:46:13.343Z,70.93
2018-01-26T05:48:44.109Z,67.33
2018-01-26T05:51:14.393Z,62.33
2018-01-26T05:53:44.613Z,83.80
2018-01-26T05:56:15.409Z,84.33
2018-01-26T05:58:46.194Z,80.40
2018-01-26T06:01:19.751Z,82.87
2018-01-26T06:03:50.302Z,84.90
2018-01-26T06:06:23.959Z,85.57
2018-01-26T06:08:55.256Z,94.70
2018-01-26T06:11:25.953Z,83.73
2018-01-26T06:13:56.256Z,81.40
2018-01-26T06:16:26.834Z,74.70
2018-01-26T06:18:57.413Z,85.20
2018-01-26T06:21:27.700Z,75.13
2018-01-26T06:23:57.945Z,74.40
2018-01-26T06:26:29.485Z,79.53
2018-01-26T06:29:00.216Z,67.90
2018-01-26T06:31:30.513Z,55.73
2018-01-26T06:34:01.338Z,58.50
2018-01-26T06:36:31.802Z,60.77
2018-01-26T06:39:02.105Z,63.80
2018-01-26T06:41:35.950Z,52.07
2018-01-26T06:44:06.625Z,52.37
2018-01-26T06:46:39.001Z,50.77
2018-01-26T06:49:09.625Z,54.73
2018-01-26T06:51:40.985Z,51.20
2018-01-26T06:54:11.630Z,56.13
2018-01-26T06:56:43.282Z,45.63
2018-01-26T06:59:13.921Z,51.00
2018-01-26T07:01:44.188Z,45.87
2018-01-26T07:07:21.738Z,48.43
2018-01-26T07:09:53.661Z,52.30
2018-01-26T07:12:25.300Z,49.43
2018-01-26T07:14:59.308Z,51.37
2018-01-26T07:17:31.305Z,47.13
2018-01-26T07:23:07.077Z,51.73
2018-01-26T07:26:06.690Z,49.53
2018-01-26T07:28:47.095Z,45.67
2018-01-26T07:31:17.577Z,48.70
2018-01-26T07:33:47.750Z,45.90
2018-01-26T07:36:21.969Z,42.90
2018-01-26T07:39:13.025Z,41.77
2018-01-26T07:41:48.497Z,47.63
2018-01-26T07:44:28.734Z,49.17
2018-01-26T07:47:11.361Z,48.70
2018-01-26T07:49:44.056Z,48.90
2018-01-26T07:52:15.600Z,43.57
2018-01-26T07:54:53.367Z,47.47
2018-01-26T07:57:33.008Z,41.23
2018-01-26T08:00:04.274Z,46.40
2018-01-26T08:02:43.695Z,46.00
2018-01-26T08:05:14.893Z,42.27
2018-01-26T08:07:45.449Z,50.53
2018-01-26T08:10:16.181Z,45.57
2018-01-26T08:12:48.080Z,50.13
2018-01-26T08:15:23.339Z,39.90
2018-01-26T08:18:01.568Z,46.00
2018-01-26T08:20:32.904Z,45.30
2018-01-26T08:23:04.353Z,47.20
2018-01-26T08:25:35.883Z,42.27
2018-01-26T08:28:08.006Z,46.40
2018-01-26T08:30:39.420Z,45.87
2018-01-26T08:33:11.444Z,42.23
2018-01-26T08:39:06.019Z,43.23
2018-01-26T08:41:37.464Z,44.60
2018-01-26T08:44:07.966Z,45.83
2018-01-26T08:46:40.060Z,42.57
2018-01-26T08:49:10.525Z,42.43
2018-01-26T08:51:44.701Z,43.23
2018-01-26T08:55:30.734Z,44.70
2018-01-26T08:58:01.692Z,43.70
2018-01-26T09:00:32.398Z,44.20
2018-01-26T09:03:02.680Z,42.83
2018-01-26T09:05:33.316Z,44.57
2018-01-26T09:08:04.705Z,41.97
2018-01-26T09:10:35.308Z,41.13
2018-01-26T09:13:07.310Z,38.53
2018-01-26T09:15:37.897Z,46.67
2018-01-26T09:18:13.098Z,42.57
2018-01-26T09:20:44.417Z,43.70
2018-01-26T09:23:15.868Z,40.60
2018-01-26T09:25:46.428Z,42.37
2018-01-26T09:28:16.763Z,42.50
2018-01-26T09:30:48.309Z,42.77
2018-01-26T09:33:18.488Z,40.37
2018-01-26T09:35:48.976Z,44.37
2018-01-26T09:38:19.474Z,43.77
2018-01-26T09:40:49.714Z,41.20
2018-01-26T09:43:21.066Z,44.43
2018-01-26T09:45:51.373Z,39.80
2018-01-26T09:48:22.254Z,44.13
2018-01-26T09:50:54.742Z,42.67
2018-01-26T09:53:26.997Z,39.10
2018-01-26T09:55:57.849Z,41.87
2018-01-26T09:58:28.617Z,40.07
2018-01-26T10:00:58.865Z,39.80
2018-01-26T10:03:30.104Z,44.20
2018-01-26T10:06:18.685Z,43.50
2018-01-26T10:08:49.860Z,44.37
2018-01-26T10:11:22.794Z,42.10
2018-01-26T10:13:55.629Z,40.07
2018-01-26T10:16:32.804Z,40.77
2018-01-26T10:19:03.714Z,39.97
2018-01-26T10:21:34.266Z,39.53
2018-01-26T10:24:06.658Z,42.43
2018-01-26T10:26:38.516Z,42.53
2018-01-26T10:29:16.279Z,42.80
2018-01-26T10:31:47.016Z,44.37
2018-01-26T10:34:17.968Z,39.43
2018-01-26T10:36:48.266Z,43.77
2018-01-26T10:39:18.406Z,42.03
2018-01-26T10:41:49.120Z,42.60
2018-01-26T10:44:19.391Z,42.33
2018-01-26T10:46:52.829Z,46.93
2018-01-26T10:49:24.544Z,38.67
2018-01-26T10:51:54.805Z,44.27
2018-01-26T10:54:28.278Z,45.20
2018-01-26T10:56:58.784Z,37.77
2018-01-26T10:59:40.867Z,43.30
2018-01-26T11:02:13.334Z,38.97
2018-01-26T11:04:44.022Z,42.20
2018-01-26T11:07:16.761Z,43.60
2018-01-26T11:09:48.270Z,44.03
2018-01-26T11:12:18.920Z,43.87
2018-01-26T11:19:23.140Z,38.13
2018-01-26T11:21:54.467Z,42.57
2018-01-26T11:24:26.098Z,42.10
2018-01-26T11:26:56.303Z,41.70
2018-01-26T11:29:26.572Z,48.47
2018-01-26T11:31:57.227Z,43.33
2018-01-26T11:34:27.660Z,40.73
2018-01-26T11:36:57.935Z,44.37
2018-01-26T11:39:28.396Z,45.33
2018-01-26T11:41:58.657Z,45.67
2018-01-26T11:44:28.915Z,44.47
2018-01-26T11:46:59.953Z,40.33
2018-01-26T11:49:30.974Z,39.07
2018-01-26T11:52:01.177Z,39.67
2018-01-26T11:54:31.908Z,44.17
2018-01-26T11:57:02.235Z,42.83
2018-01-26T11:59:32.689Z,44.37
2018-01-26T12:02:30.658Z,54.00
2018-01-26T12:05:01.091Z,47.10
2018-01-26T12:07:32.365Z,47.20
2018-01-26T12:10:03.328Z,53.03
2018-01-26T12:12:34.202Z,47.37
2018-01-26T12:15:04.755Z,52.37
2018-01-26T12:17:35.985Z,53.40
2018-01-26T12:20:06.276Z,54.40
2018-01-26T12:22:36.934Z,52.77
2018-01-26T12:25:08.060Z,53.93
2018-01-26T12:27:38.553Z,58.87
2018-01-26T12:30:09.222Z,48.57
2018-01-26T12:32:39.649Z,58.73
2018-01-26T12:35:10.138Z,55.00
2018-01-26T12:37:40.592Z,63.13
2018-01-26T12:40:10.804Z,60.63
2018-01-26T12:42:40.966Z,55.27
2018-01-26T12:45:12.105Z,61.47
2018-01-26T12:47:42.593Z,60.97
2018-01-26T12:50:12.845Z,62.80
2018-01-26T12:52:43.481Z,70.10
2018-01-26T12:55:13.734Z,66.97
2018-01-26T12:57:44.316Z,64.73
2018-01-26T13:00:15.180Z,70.20
2018-01-26T13:02:45.717Z,71.07
2018-01-26T13:05:16.281Z,65.93
2018-01-26T13:07:48.106Z,68.57
2018-01-26T13:10:18.305Z,71.93
2018-01-26T13:12:48.579Z,65.17
2018-01-26T13:15:19.640Z,67.40
2018-01-26T13:17:49.854Z,67.93
2018-01-26T13:20:20.114Z,65.33
2018-01-26T13:22:50.682Z,72.70
2018-01-26T13:25:21.023Z,70.73
2018-01-26T13:27:52.256Z,66.70
2018-01-26T13:30:22.454Z,72.07
2018-01-26T13:32:53.257Z,76.73
2018-01-26T13:35:26.170Z,70.23
2018-01-26T13:37:56.449Z,69.40
2018-01-26T13:40:26.946Z,79.97
2018-01-26T13:42:59.033Z,80.10
2018-01-26T13:45:29.222Z,81.53
2018-01-26T13:47:59.968Z,77.70
2018-01-26T13:50:30.331Z,82.43
2018-01-26T13:53:07.165Z,86.70
2018-01-26T13:55:37.978Z,87.93
2018-01-26T13:58:08.217Z,87.07
2018-01-26T14:00:38.742Z,89.50
2018-01-26T14:03:09.802Z,98.73
2018-01-26T14:05:40.302Z,100.60
2018-01-26T14:08:11.061Z,94.90
2018-01-26T14:10:42.132Z,99.37
2018-01-26T14:13:12.557Z,93.30
2018-01-26T14:15:43.184Z,85.13
2018-01-26T14:18:13.393Z,86.03
2018-01-26T14:20:43.631Z,77.97
2018-01-26T14:23:14.665Z,87.43
2018-01-26T14:25:44.792Z,79.97
2018-01-26T14:28:15.032Z,86.00
2018-01-26T14:30:46.446Z,89.13
2018-01-26T14:33:16.628Z,91.87
2018-01-26T14:35:47.161Z,103.63
2018-01-26T14:38:17.790Z,96.27
2018-01-26T14:40:48.029Z,99.83
2018-01-26T14:43:18.424Z,92.60
2018-01-26T14:45:48.953Z,93.87
2018-01-26T14:48:19.158Z,103.57
2018-01-26T14:50:50.805Z,101.03
2018-01-26T14:53:22.306Z,104.03
2018-01-26T14:55:52.958Z,102.50
2018-01-26T14:58:23.697Z,110.13
2018-01-26T15:00:55.588Z,101.07
2018-01-26T15:03:26.561Z,99.57
2018-01-26T15:05:57.921Z,92.33
2018-01-26T15:08:28.913Z,95.93
2018-01-26T15:11:12.613Z,88.67
2018-01-26T15:13:45.075Z,97.77
2018-01-26T15:16:15.354Z,99.13
2018-01-26T15:18:46.285Z,99.40
2018-01-26T15:21:17.357Z,104.53
2018-01-26T15:23:47.940Z,115.47
2018-01-26T15:26:18.873Z,113.10
2018-01-26T15:28:50.198Z,101.50
2018-01-26T15:31:20.706Z,106.73
2018-01-26T15:33:51.017Z,108.73
2018-01-26T15:36:22.218Z,94.43
2018-01-26T15:38:52.748Z,90.47
2018-01-26T15:41:22.951Z,87.07
2018-01-26T15:43:53.269Z,80.77
2018-01-26T15:46:23.916Z,86.10
2018-01-26T15:48:54.997Z,80.17
2018-01-26T15:51:25.329Z,78.27
2018-01-26T15:53:55.925Z,78.03
2018-01-26T15:56:27.345Z,74.07
2018-01-26T15:58:58.773Z,69.73
2018-01-26T16:01:29.672Z,72.67
2018-01-26T16:03:59.917Z,71.87
2018-01-26T16:06:30.372Z,72.87
2018-01-26T16:09:00.959Z,77.73
2018-01-26T16:11:32.532Z,69.77
2018-01-26T16:14:03.820Z,65.70
2018-01-26T16:16:34.134Z,73.60
2018-01-26T16:19:04.817Z,70.97
2018-01-26T16:21:35.103Z,79.07
2018-01-26T16:24:05.628Z,67.70
2018-01-26T16:26:37.058Z,85.07
2018-01-26T16:29:08.308Z,72.27
2018-01-26T16:31:38.653Z,75.70
2018-01-26T16:34:09.670Z,83.77
2018-01-26T16:36:40.097Z,84.17
2018-01-26T16:39:10.424Z,82.77
2018-01-26T16:41:40.669Z,90.17
2018-01-26T16:44:12.269Z,95.50
2018-01-26T16:46:43.893Z,91.63
2018-01-26T16:49:14.695Z,106.87
2018-01-26T16:51:52.022Z,97.93
2018-01-26T16:54:22.368Z,107.47
2018-01-26T16:56:53.527Z,129.57
2018-01-26T16:59:24.123Z,120.00
2018-01-26T17:01:54.392Z,125.87
2018-01-26T17:04:24.904Z,141.50
2018-01-26T17:06:55.658Z,143.83
2018-01-26T17:09:26.648Z,155.33
2018-01-26T17:11:58.855Z,153.33
2018-01-26T17:14:29.609Z,165.47
2018-01-26T17:17:00.026Z,159.87
2018-01-26T17:19:31.532Z,176.93
2018-01-26T17:22:02.900Z,153.53
2018-01-26T17:24:33.148Z,137.93
2018-01-26T17:27:04.585Z,129.80
2018-01-26T17:29:34.777Z,130.37
2018-01-26T17:32:05.164Z,105.90
2018-01-26T17:34:35.689Z,106.97
2018-01-26T17:37:05.992Z,89.73
2018-01-26T17:39:37.249Z,96.73
2018-01-26T17:42:07.477Z,101.67
2018-01-26T17:44:37.900Z,90.73
2018-01-26T17:47:09.291Z,97.13
2018-01-26T17:49:39.457Z,92.90
2018-01-26T17:52:09.683Z,99.10
2018-01-26T17:54:39.892Z,86.43
2018-01-26T17:57:11.513Z,93.20
2018-01-26T17:59:41.803Z,86.03
2018-01-26T18:02:12.190Z,87.47
2018-01-26T18:04:42.877Z,98.63
2018-01-26T18:07:13.300Z,103.23
2018-01-26T18:09:43.591Z,101.10
2018-01-26T18:12:14.054Z,94.33
2018-01-26T18:14:44.244Z,89.57
2018-01-26T18:17:17.200Z,89.87
2018-01-26T18:19:48.384Z,105.73
2018-01-26T18:22:18.513Z,93.27
2018-01-26T18:24:48.734Z,88.77
2018-01-26T18:27:19.208Z,83.33
2018-01-26T18:29:50.174Z,93.57
2018-01-26T18:32:21.038Z,87.10
2018-01-26T18:34:51.513Z,92.57
2018-01-26T18:37:21.686Z,94.93
2018-01-26T18:39:51.833Z,98.73
2018-01-26T18:42:22.159Z,95.73
2018-01-26T18:44:52.355Z,105.87
2018-01-26T18:47:22.610Z,115.73
2018-01-26T18:49:52.848Z,124.17
2018-01-26T18:52:23.366Z,136.57
2018-01-26T18:54:53.537Z,152.30
2018-01-26T18:57:23.997Z,177.43
2018-01-26T18:59:54.402Z,188.70
2018-01-26T19:02:24.602Z,176.07
2018-01-26T19:04:54.749Z,159.13
2018-01-26T19:07:24.961Z,162.00
2018-01-26T19:09:55.436Z,173.70
2018-01-26T19:12:26.326Z,150.70
2018-01-26T19:14:56.897Z,142.10
2018-01-26T19:17:28.082Z,133.73
2018-01-26T19:19:58.185Z,119.97
2018-01-26T19:22:28.361Z,109.90
2018-01-26T19:24:58.821Z,118.93
2018-01-26T19:27:29.351Z,118.87
2018-01-26T19:29:59.526Z,103.23
2018-01-26T19:32:30.714Z,103.83
2018-01-26T19:35:01.179Z,90.13
2018-01-26T19:37:31.395Z,97.80
2018-01-26T19:40:01.602Z,91.77
2018-01-26T19:42:32.121Z,90.37
2018-01-26T19:45:03.146Z,101.13
2018-01-26T19:47:33.604Z,98.00
2018-01-26T19:50:03.871Z,96.93
2018-01-26T19:52:35.036Z,99.47
2018-01-26T19:55:05.204Z,102.33
2018-01-26T19:57:40.297Z,108.20
2018-01-26T20:00:10.748Z,91.37
2018-01-26T20:02:41.784Z,94.37
2018-01-26T20:05:53.226Z,91.90
2018-01-26T20:08:27.960Z,101.47
2018-01-26T20:10:59.132Z,92.73
2018-01-26T20:13:29.376Z,82.40
2018-01-26T20:15:59.820Z,91.60
2018-01-26T20:18:30.113Z,82.80
2018-01-26T20:21:00.627Z,69.17
2018-01-26T20:23:31.102Z,74.17
2018-01-26T20:26:01.406Z,56.33
2018-01-26T20:28:32.953Z,55.20
2018-01-26T20:31:03.289Z,45.97
2018-01-26T20:33:33.652Z,42.23
2018-01-26T20:36:06.084Z,45.03
2018-01-26T20:38:36.322Z,43.13
2018-01-26T20:41:07.308Z,41.53
2018-01-26T20:43:37.838Z,42.40
2018-01-26T20:46:08.073Z,45.07
2018-01-26T20:48:38.521Z,57.03
2018-01-26T20:51:08.758Z,46.20
2018-01-26T20:53:40.144Z,51.27
2018-01-26T20:56:10.645Z,41.80
2018-01-26T20:58:41.698Z,51.03
2018-01-26T21:01:12.122Z,46.37
2018-01-26T21:03:43.524Z,49.17
2018-01-26T21:06:13.986Z,44.67
2018-01-26T21:08:45.334Z,46.20
2018-01-26T21:11:15.587Z,44.20
2018-01-26T21:13:46.124Z,42.87
2018-01-26T21:16:16.463Z,42.03
2018-01-26T21:18:48.532Z,45.97
2018-01-26T21:21:19.085Z,42.73
2018-01-26T21:23:49.317Z,45.00
2018-01-26T21:26:19.837Z,52.80
2018-01-26T21:28:51.082Z,49.67
2018-01-26T21:31:21.354Z,58.73
2018-01-26T21:33:51.934Z,56.73
2018-01-26T21:36:22.969Z,51.13
2018-01-26T21:38:54.267Z,52.33
2018-01-26T21:41:24.580Z,56.43
2018-01-26T21:43:54.776Z,60.30
2018-01-26T21:46:25.386Z,53.43
2018-01-26T21:48:56.527Z,58.23
2018-01-26T21:51:28.692Z,54.27
2018-01-26T21:53:59.621Z,61.07
2018-01-26T21:56:29.929Z,59.37
2018-01-26T21:59:00.177Z,57.33
2018-01-26T22:01:30.747Z,64.47
2018-01-26T22:04:01.273Z,56.73
2018-01-26T22:06:35.594Z,54.03
2018-01-26T22:09:06.241Z,55.03
2018-01-26T22:11:36.496Z,57.67
2018-01-26T22:14:08.497Z,52.63
2018-01-26T22:16:39.246Z,66.40
2018-01-26T22:19:09.658Z,61.13
2018-01-26T22:21:42.141Z,62.63
2018-01-26T22:24:13.035Z,58.27
2018-01-26T22:26:43.405Z,66.43
2018-01-26T22:29:14.060Z,66.50
2018-01-26T22:31:44.682Z,76.83
2018-01-26T22:34:15.389Z,68.27
2018-01-26T22:36:46.498Z,65.73
2018-01-26T22:39:16.803Z,67.23
2018-01-26T22:41:47.001Z,68.53
2018-01-26T22:44:17.345Z,71.43
2018-01-26T22:46:48.062Z,72.20
2018-01-26T22:49:19.236Z,65.70
2018-01-26T22:51:49.558Z,76.20
2018-01-26T22:54:20.420Z,61.03
2018-01-26T22:56:51.824Z,67.10
2018-01-26T22:59:22.894Z,67.77
2018-01-26T23:01:54.180Z,66.10
2018-01-26T23:04:25.315Z,73.17
2018-01-26T23:06:55.743Z,73.87
2018-01-26T23:09:26.518Z,80.50
2018-01-26T23:11:57.170Z,82.77
2018-01-26T23:14:28.610Z,71.63
2018-01-26T23:17:01.849Z,58.03
2018-01-26T23:19:32.616Z,69.97
2018-01-26T23:22:02.999Z,73.63
2018-01-26T23:24:33.614Z,66.10
2018-01-26T23:27:04.427Z,54.50
2018-01-26T23:29:35.160Z,57.47
2018-01-26T23:32:06.252Z,61.07
2018-01-26T23:34:36.642Z,61.47
2018-01-26T23:37:08.073Z,57.13
2018-01-26T23:39:38.389Z,40.87
2018-01-26T23:42:08.599Z,43.67
2018-01-26T23:44:39.276Z,47.13
2018-01-26T23:47:09.626Z,44.33
2018-01-26T23:49:39.882Z,45.53
2018-01-26T23:52:10.313Z,47.27
2018-01-26T23:54:40.629Z,43.33
2018-01-26T23:57:11.048Z,47.27
2018-01-26T23:59:41.622Z,42.87
